Terminal Aerodrome Forecast
Issued by NWS

Home | Current Version | Previous Version | Text Only | Print | Product List | Glossary On
Versions: 1 2 3 4 5 6 7 8 9 10 11 12 13 14 15 16 17 18 19 20 21 22 23
990
FTUS46 KSGX 221723
TAFSAN
TAF
KSAN 221723Z 2218/2324 29009KT P6SM VCSH SCT025 BKN060
     FM221900 29011G17KT P6SM VCSH SCT025 BKN050
     FM230200 29009KT P6SM VCSH BKN025 OVC040
     FM230300 30005KT P6SM VCSH BKN025 OVC040
     FM231600 VRB05KT P6SM SCT025 BKN035
     FM231900 29009KT P6SM FEW025 SCT040=

USA.gov is the U.S. government's official web portal to all federal, state and local government web resources and services.